createdAt,value
2022-12-24T00:01:42.827Z,79.30
2022-12-24T00:04:13.332Z,79.40
2022-12-24T00:06:42.252Z,79.40
2022-12-24T00:09:11.421Z,79.60
2022-12-24T00:11:40.422Z,79.20
2022-12-24T00:14:09.508Z,79.10
2022-12-24T00:16:39.044Z,79.00
2022-12-24T00:19:08.059Z,79.00
2022-12-24T00:21:38.287Z,78.80
2022-12-24T00:24:07.684Z,78.50
2022-12-24T00:26:37.122Z,78.40
2022-12-24T00:29:06.672Z,78.40
2022-12-24T00:31:35.763Z,78.50
2022-12-24T00:34:04.725Z,78.40
2022-12-24T00:36:33.525Z,78.30
2022-12-24T00:39:03.889Z,78.30
2022-12-24T00:41:32.707Z,78.20
2022-12-24T00:44:03.412Z,78.20
2022-12-24T00:46:34.144Z,78.10
2022-12-24T00:49:03.086Z,78.80
2022-12-24T00:51:32.001Z,77.90
2022-12-24T00:54:01.029Z,78.00
2022-12-24T00:56:31.497Z,77.80
2022-12-24T00:59:00.497Z,77.30
2022-12-24T01:01:30.251Z,77.40
2022-12-24T01:04:13.204Z,77.30
2022-12-24T01:06:42.298Z,77.30
2022-12-24T01:09:11.493Z,77.30
2022-12-24T01:11:42.018Z,77.20
2022-12-24T01:14:11.378Z,77.10
2022-12-24T01:16:40.662Z,77.00
2022-12-24T01:19:09.902Z,76.80
2022-12-24T01:21:38.828Z,76.90
2022-12-24T01:24:07.992Z,76.90
2022-12-24T01:26:37.262Z,76.90
2022-12-24T01:29:07.472Z,76.70
2022-12-24T01:31:36.578Z,76.60
2022-12-24T01:34:05.896Z,76.40
2022-12-24T01:36:35.294Z,76.20
2022-12-24T01:39:04.985Z,76.30
2022-12-24T01:41:51.792Z,76.50
2022-12-24T01:44:31.536Z,76.50
2022-12-24T01:47:10.284Z,76.00
2022-12-24T01:49:42.039Z,75.90
2022-12-24T01:52:15.240Z,75.90
2022-12-24T01:54:48.540Z,75.60
2022-12-24T01:57:20.695Z,75.50
2022-12-24T01:59:53.193Z,75.20
2022-12-24T02:02:23.217Z,75.10
2022-12-24T02:04:58.656Z,75.10
2022-12-24T02:07:27.952Z,74.90
2022-12-24T02:10:01.195Z,74.90
2022-12-24T02:12:33.300Z,74.70
2022-12-24T02:15:07.719Z,74.40
2022-12-24T02:17:46.551Z,74.50
2022-12-24T02:20:54.526Z,74.60
2022-12-24T02:23:58.082Z,74.60
2022-12-24T02:26:40.265Z,74.50
2022-12-24T02:29:27.880Z,74.20
2022-12-24T02:32:03.240Z,74.20
2022-12-24T02:34:38.435Z,74.20
2022-12-24T02:37:12.596Z,74.20
2022-12-24T02:39:46.349Z,74.20
2022-12-24T02:42:20.114Z,74.20
2022-12-24T02:44:53.101Z,74.20
2022-12-24T02:47:27.010Z,74.50
2022-12-24T02:49:56.080Z,74.60
2022-12-24T02:52:32.899Z,74.50
2022-12-24T02:55:07.384Z,74.50
2022-12-24T02:57:51.651Z,74.50
2022-12-24T03:00:23.110Z,74.70
2022-12-24T03:03:12.984Z,74.80
2022-12-24T03:05:49.793Z,74.90
2022-12-24T03:08:29.103Z,75.00
2022-12-24T03:11:01.461Z,75.00
2022-12-24T03:13:30.990Z,75.10
2022-12-24T03:16:01.222Z,75.10
2022-12-24T03:18:32.483Z,75.20
2022-12-24T03:21:07.744Z,75.10
2022-12-24T03:23:37.460Z,75.30
2022-12-24T03:26:08.916Z,75.30
2022-12-24T03:28:42.220Z,75.20
2022-12-24T03:31:12.022Z,75.10
2022-12-24T03:33:42.615Z,75.20
2022-12-24T03:36:12.501Z,75.10
2022-12-24T03:38:41.699Z,75.10
2022-12-24T03:41:10.804Z,75.20
2022-12-24T03:43:40.440Z,75.10
2022-12-24T03:46:09.964Z,74.80
2022-12-24T03:48:38.748Z,74.80
2022-12-24T03:51:18.644Z,74.80
2022-12-24T03:53:47.672Z,74.60
2022-12-24T03:56:16.912Z,74.70
2022-12-24T03:58:46.116Z,74.70
2022-12-24T04:01:15.338Z,74.50
2022-12-24T04:03:44.697Z,74.40
2022-12-24T04:06:18.871Z,74.10
2022-12-24T04:08:48.072Z,73.90
2022-12-24T04:11:18.033Z,73.90
2022-12-24T04:13:47.176Z,73.90
2022-12-24T04:16:17.437Z,73.60
2022-12-24T04:18:46.458Z,73.60
2022-12-24T04:21:17.074Z,73.40
2022-12-24T04:23:50.721Z,73.40
2022-12-24T04:26:19.917Z,73.40
2022-12-24T04:28:48.642Z,73.20
2022-12-24T04:31:18.803Z,72.90
2022-12-24T04:33:52.996Z,72.90
2022-12-24T04:36:23.612Z,72.90
2022-12-24T04:38:52.640Z,72.80
2022-12-24T04:41:24.572Z,72.60
2022-12-24T04:43:55.399Z,72.40
2022-12-24T04:46:27.039Z,72.50
2022-12-24T04:48:56.247Z,72.60
2022-12-24T04:51:27.791Z,72.60
2022-12-24T04:53:59.853Z,72.50
2022-12-24T04:56:30.999Z,72.50
2022-12-24T04:59:01.559Z,72.40
2022-12-24T05:01:32.720Z,72.60
2022-12-24T05:04:02.365Z,72.70
2022-12-24T05:06:33.855Z,72.70
2022-12-24T05:09:02.970Z,72.70
2022-12-24T05:11:32.237Z,72.80
2022-12-24T05:14:01.134Z,72.70
2022-12-24T05:16:30.231Z,72.70
2022-12-24T05:18:59.197Z,72.70
2022-12-24T05:21:28.140Z,72.70
2022-12-24T05:24:16.254Z,72.80
2022-12-24T05:26:48.062Z,73.00
2022-12-24T05:29:17.509Z,72.90
2022-12-24T05:31:47.294Z,73.00
2022-12-24T05:34:17.502Z,73.10
2022-12-24T05:36:46.678Z,73.10
2022-12-24T05:39:18.784Z,73.20
2022-12-24T05:41:48.238Z,73.20
2022-12-24T05:44:17.965Z,73.30
2022-12-24T05:46:47.022Z,73.30
2022-12-24T05:49:16.044Z,73.30
2022-12-24T05:51:45.094Z,73.30
2022-12-24T05:54:14.244Z,73.30
2022-12-24T05:56:44.745Z,73.40
2022-12-24T05:59:13.697Z,73.30
2022-12-24T06:01:45.591Z,73.30
2022-12-24T06:04:14.807Z,73.40
2022-12-24T06:06:43.854Z,73.40
2022-12-24T06:09:12.942Z,73.40
2022-12-24T06:11:42.281Z,73.40
2022-12-24T06:14:12.595Z,73.40
2022-12-24T06:16:41.665Z,73.30
2022-12-24T06:19:10.549Z,73.30
2022-12-24T06:21:39.522Z,73.10
2022-12-24T06:24:09.037Z,73.10
2022-12-24T06:26:38.039Z,73.00
2022-12-24T06:29:07.553Z,73.00
2022-12-24T06:31:38.198Z,73.00
2022-12-24T06:34:07.408Z,73.00
2022-12-24T06:36:36.403Z,72.90
2022-12-24T06:39:05.405Z,72.80
2022-12-24T06:41:34.341Z,72.80
2022-12-24T06:44:03.385Z,72.80
2022-12-24T06:46:32.490Z,72.80
2022-12-24T06:49:03.002Z,72.90
2022-12-24T06:51:32.035Z,72.90
2022-12-24T06:54:01.018Z,72.80
2022-12-24T06:56:30.173Z,73.00
2022-12-24T06:59:05.118Z,73.00
2022-12-24T07:01:34.713Z,73.10
2022-12-24T07:04:05.278Z,73.10
2022-12-24T07:06:34.133Z,73.00
2022-12-24T07:09:02.981Z,73.10
2022-12-24T07:11:31.949Z,73.10
2022-12-24T07:14:01.005Z,73.20
2022-12-24T07:16:30.244Z,73.30
2022-12-24T07:18:59.521Z,73.40
2022-12-24T07:21:29.731Z,73.60
2022-12-24T07:23:58.858Z,73.60
2022-12-24T07:26:27.916Z,73.70
2022-12-24T07:28:57.078Z,73.70
2022-12-24T07:31:26.080Z,73.70
2022-12-24T07:33:55.637Z,73.90
2022-12-24T07:36:24.644Z,74.20
2022-12-24T07:38:54.985Z,74.30
2022-12-24T07:41:24.655Z,74.30
2022-12-24T07:43:53.938Z,74.40
2022-12-24T07:46:23.274Z,74.50
2022-12-24T07:48:52.338Z,74.60
2022-12-24T07:51:21.399Z,74.60
2022-12-24T07:53:50.456Z,74.70
2022-12-24T07:56:20.831Z,74.70
2022-12-24T07:58:51.506Z,74.70
2022-12-24T08:01:20.540Z,74.90
2022-12-24T08:03:51.513Z,74.90
2022-12-24T08:06:20.936Z,75.00
2022-12-24T08:08:49.942Z,75.10
2022-12-24T08:11:20.389Z,75.20
2022-12-24T08:13:49.415Z,75.00
2022-12-24T08:16:18.573Z,75.10
2022-12-24T08:18:47.710Z,75.00
2022-12-24T08:21:16.748Z,75.10
2022-12-24T08:23:47.717Z,75.00
2022-12-24T08:26:16.688Z,75.10
2022-12-24T08:28:47.169Z,75.00
2022-12-24T08:31:16.835Z,74.90
2022-12-24T08:33:45.829Z,75.00
2022-12-24T08:36:15.446Z,74.90
2022-12-24T08:38:44.340Z,74.90
2022-12-24T08:41:13.528Z,74.80
2022-12-24T08:43:42.593Z,74.90
2022-12-24T08:46:13.154Z,75.70
2022-12-24T08:48:42.132Z,74.90
2022-12-24T08:51:11.998Z,75.60
2022-12-24T08:53:41.832Z,74.90
2022-12-24T08:56:11.493Z,74.90
2022-12-24T08:58:41.629Z,74.80
2022-12-24T09:01:14.604Z,74.70
2022-12-24T09:03:44.581Z,74.80
2022-12-24T09:06:14.889Z,74.60
2022-12-24T09:08:44.011Z,74.80
2022-12-24T09:11:15.731Z,74.80
2022-12-24T09:13:45.301Z,74.90
2022-12-24T09:16:16.110Z,74.70
2022-12-24T09:18:45.261Z,74.40
2022-12-24T09:21:17.645Z,74.70
2022-12-24T09:23:49.090Z,74.90
2022-12-24T09:26:20.186Z,74.80
2022-12-24T09:28:49.944Z,74.90
2022-12-24T09:31:21.535Z,74.90
2022-12-24T09:33:52.292Z,74.90
2022-12-24T09:36:21.716Z,74.90
2022-12-24T09:38:51.728Z,74.90
2022-12-24T09:41:34.663Z,74.90
2022-12-24T09:44:13.180Z,75.20
2022-12-24T09:46:46.767Z,75.30
2022-12-24T09:49:21.227Z,75.30
2022-12-24T09:51:55.324Z,75.40
2022-12-24T09:54:29.317Z,75.40
2022-12-24T09:57:01.585Z,75.50
2022-12-24T09:59:40.514Z,75.50
2022-12-24T10:02:14.636Z,75.70
2022-12-24T10:04:45.284Z,75.70
2022-12-24T10:07:29.566Z,75.70
2022-12-24T10:10:06.326Z,75.80
2022-12-24T10:12:47.736Z,75.90
2022-12-24T10:15:27.033Z,75.80
2022-12-24T10:18:11.855Z,75.70
2022-12-24T10:20:47.134Z,75.80
2022-12-24T10:23:25.466Z,75.70
2022-12-24T10:26:11.039Z,75.90
2022-12-24T10:28:47.814Z,76.00
2022-12-24T10:31:17.160Z,76.00
2022-12-24T10:33:55.169Z,76.00
2022-12-24T10:36:29.469Z,76.30
2022-12-24T10:38:59.690Z,76.40
2022-12-24T10:41:31.207Z,76.40
2022-12-24T10:44:01.069Z,76.50
2022-12-24T10:46:36.271Z,76.70
2022-12-24T10:49:08.640Z,76.80
2022-12-24T10:51:44.069Z,76.90
2022-12-24T10:54:19.497Z,77.00
2022-12-24T10:56:56.447Z,77.10
2022-12-24T10:59:27.800Z,77.20
2022-12-24T11:01:58.822Z,77.40
2022-12-24T11:04:32.426Z,77.40
2022-12-24T11:07:04.213Z,77.50
2022-12-24T11:09:36.330Z,77.60
2022-12-24T11:12:18.006Z,77.60
2022-12-24T11:14:47.023Z,77.70
2022-12-24T11:17:22.002Z,77.60
2022-12-24T11:19:52.723Z,77.70
2022-12-24T11:22:25.755Z,77.80
2022-12-24T11:25:02.942Z,78.00
2022-12-24T11:27:35.301Z,78.10
2022-12-24T11:30:31.814Z,78.10
2022-12-24T11:33:18.454Z,78.20
2022-12-24T11:35:52.716Z,78.30
2022-12-24T11:38:27.317Z,78.40
2022-12-24T11:41:06.667Z,78.50
2022-12-24T11:43:48.548Z,78.60
2022-12-24T11:46:23.506Z,78.50
2022-12-24T11:49:08.308Z,78.70
2022-12-24T11:51:40.772Z,78.80
2022-12-24T11:54:17.647Z,78.60
2022-12-24T11:56:51.046Z,78.70
2022-12-24T11:59:27.349Z,78.60
2022-12-24T12:02:00.611Z,78.50
2022-12-24T12:04:31.723Z,78.80
2022-12-24T12:07:12.843Z,78.90
2022-12-24T12:09:46.907Z,78.90
2022-12-24T12:12:20.337Z,78.60
2022-12-24T12:14:55.157Z,78.50
2022-12-24T12:17:31.364Z,78.40
2022-12-24T12:20:04.186Z,78.10
2022-12-24T12:22:43.104Z,78.00
2022-12-24T12:25:22.704Z,77.90
2022-12-24T12:27:56.312Z,77.80
2022-12-24T12:30:27.460Z,77.60
2022-12-24T12:33:04.087Z,77.50
2022-12-24T12:35:36.346Z,77.50
2022-12-24T12:38:09.043Z,77.50
2022-12-24T12:40:57.484Z,77.40
2022-12-24T12:43:40.236Z,77.30
2022-12-24T12:46:19.839Z,77.20
2022-12-24T12:49:08.856Z,77.20
2022-12-24T12:51:48.032Z,77.20
2022-12-24T12:54:36.959Z,77.20
2022-12-24T12:57:09.694Z,77.20
2022-12-24T12:59:42.626Z,77.20
2022-12-24T13:02:42.490Z,77.20
2022-12-24T13:05:41.107Z,77.20
2022-12-24T13:08:27.546Z,77.10
2022-12-24T13:11:27.799Z,76.90
2022-12-24T13:14:16.567Z,76.80
2022-12-24T13:17:11.344Z,76.50
2022-12-24T13:20:02.985Z,76.60
2022-12-24T13:22:32.421Z,76.50
2022-12-24T13:25:01.528Z,76.50
2022-12-24T13:27:34.247Z,76.50
2022-12-24T13:30:10.243Z,76.30
2022-12-24T13:32:48.366Z,76.30
2022-12-24T13:35:38.168Z,76.30
2022-12-24T13:38:37.527Z,76.10
2022-12-24T13:41:41.400Z,76.00
2022-12-24T13:44:32.749Z,75.90
2022-12-24T13:47:28.127Z,76.50
2022-12-24T13:50:24.586Z,75.70
2022-12-24T13:52:54.905Z,75.80
2022-12-24T13:55:24.244Z,75.90
2022-12-24T13:58:00.415Z,75.90
2022-12-24T14:00:38.428Z,75.90
2022-12-24T14:03:22.005Z,76.00
2022-12-24T14:05:54.430Z,76.00
2022-12-24T14:08:40.332Z,76.00
2022-12-24T14:11:13.692Z,76.00
2022-12-24T14:14:10.625Z,76.00
2022-12-24T14:16:51.616Z,76.00
2022-12-24T14:19:24.005Z,76.00
2022-12-24T14:21:59.194Z,75.90
2022-12-24T14:24:32.792Z,76.00
2022-12-24T14:27:09.234Z,76.00
2022-12-24T14:29:48.022Z,76.00
2022-12-24T14:32:18.648Z,76.10
2022-12-24T14:34:47.753Z,76.00
2022-12-24T14:37:18.245Z,76.10
2022-12-24T14:39:56.849Z,76.10
2022-12-24T14:42:49.314Z,76.20
2022-12-24T14:45:27.074Z,76.20
2022-12-24T14:48:05.122Z,76.20
2022-12-24T14:50:41.773Z,76.20
2022-12-24T14:53:22.332Z,76.20
2022-12-24T14:55:51.938Z,76.30
2022-12-24T14:58:26.480Z,76.30
2022-12-24T15:00:58.291Z,76.50
2022-12-24T15:03:31.916Z,76.50
2022-12-24T15:06:04.203Z,76.50
2022-12-24T15:08:37.853Z,76.50
2022-12-24T15:11:10.117Z,76.60
2022-12-24T15:13:41.570Z,76.60
2022-12-24T15:16:12.265Z,76.60
2022-12-24T15:18:47.463Z,76.50
2022-12-24T15:21:20.560Z,76.50
2022-12-24T15:23:51.346Z,76.60
2022-12-24T15:26:24.925Z,76.80
2022-12-24T15:29:02.173Z,77.00
2022-12-24T15:31:32.946Z,77.10
2022-12-24T15:34:03.684Z,77.00
2022-12-24T15:36:35.700Z,77.00
2022-12-24T15:39:09.390Z,77.70
2022-12-24T15:42:01.074Z,76.80
2022-12-24T15:44:34.665Z,76.80
2022-12-24T15:47:06.155Z,76.80
2022-12-24T15:49:37.677Z,76.90
2022-12-24T15:52:10.685Z,77.00
2022-12-24T15:54:45.504Z,77.00
2022-12-24T15:57:21.904Z,77.20
2022-12-24T15:59:54.215Z,77.30
2022-12-24T16:02:37.337Z,77.30
2022-12-24T16:05:35.756Z,77.60
2022-12-24T16:08:26.225Z,77.60
2022-12-24T16:11:10.138Z,77.60
2022-12-24T16:13:41.037Z,77.70
2022-12-24T16:16:13.408Z,77.60
2022-12-24T16:18:49.069Z,77.60
2022-12-24T16:21:25.724Z,77.60
2022-12-24T16:23:56.938Z,77.80
2022-12-24T16:26:25.996Z,77.80
2022-12-24T16:28:56.617Z,77.70
2022-12-24T16:31:33.099Z,77.90
2022-12-24T16:34:03.245Z,78.00
2022-12-24T16:36:33.854Z,78.10
2022-12-24T16:39:20.413Z,78.10
2022-12-24T16:42:07.168Z,78.20
2022-12-24T16:44:36.168Z,78.10
2022-12-24T16:47:07.069Z,78.10
2022-12-24T16:49:38.681Z,78.00
2022-12-24T16:52:17.488Z,78.00
2022-12-24T16:54:46.435Z,78.00
2022-12-24T16:57:15.528Z,77.90
2022-12-24T16:59:44.731Z,78.00
2022-12-24T17:02:16.020Z,77.90
2022-12-24T17:04:45.705Z,77.80
2022-12-24T17:07:18.293Z,77.80
2022-12-24T17:09:47.264Z,77.80
2022-12-24T17:12:17.133Z,77.70
2022-12-24T17:14:46.132Z,77.70
2022-12-24T17:17:22.785Z,77.60
2022-12-24T17:19:52.111Z,77.80
2022-12-24T17:22:22.605Z,77.80
2022-12-24T17:24:51.694Z,77.80
2022-12-24T17:27:21.203Z,77.80
2022-12-24T17:29:50.511Z,77.80
2022-12-24T17:32:19.587Z,77.80
2022-12-24T17:34:48.690Z,77.70
2022-12-24T17:37:17.933Z,77.80
2022-12-24T17:39:48.444Z,77.90
2022-12-24T17:42:17.368Z,77.80
2022-12-24T17:44:46.406Z,77.80
2022-12-24T17:47:15.234Z,77.80
2022-12-24T17:49:44.061Z,78.00
2022-12-24T17:52:14.220Z,78.10
2022-12-24T17:54:43.196Z,78.20
2022-12-24T17:57:13.792Z,78.10
2022-12-24T17:59:42.617Z,78.20
2022-12-24T18:02:13.796Z,78.00
2022-12-24T18:04:42.846Z,78.10
2022-12-24T18:07:11.737Z,78.20
2022-12-24T18:09:40.714Z,78.20
2022-12-24T18:12:09.800Z,78.30
2022-12-24T18:14:40.064Z,78.30
2022-12-24T18:17:09.056Z,78.20
2022-12-24T18:19:38.180Z,78.10
2022-12-24T18:22:07.089Z,78.20
2022-12-24T18:24:36.379Z,78.20
2022-12-24T18:27:05.298Z,78.30
2022-12-24T18:29:35.170Z,78.20
2022-12-24T18:32:05.927Z,78.20
2022-12-24T18:34:35.056Z,78.80
2022-12-24T18:37:04.003Z,78.10
2022-12-24T18:39:32.818Z,78.90
2022-12-24T18:42:01.793Z,78.20
2022-12-24T18:44:31.152Z,78.20
2022-12-24T18:47:00.574Z,78.30
2022-12-24T18:49:31.053Z,78.30
2022-12-24T18:52:00.202Z,78.30
2022-12-24T18:54:29.622Z,78.40
2022-12-24T18:56:58.616Z,78.40
2022-12-24T18:59:27.590Z,78.40
2022-12-24T19:01:56.796Z,78.40
2022-12-24T19:04:25.877Z,78.40
2022-12-24T19:06:56.284Z,78.20
2022-12-24T19:09:25.315Z,78.20
2022-12-24T19:11:54.318Z,78.30
2022-12-24T19:14:23.344Z,78.40
2022-12-24T19:16:52.418Z,78.40
2022-12-24T19:19:24.114Z,78.30
2022-12-24T19:21:55.540Z,78.30
2022-12-24T19:24:24.581Z,78.40
2022-12-24T19:26:54.041Z,78.40
2022-12-24T19:29:23.455Z,78.40
2022-12-24T19:31:52.704Z,78.40
2022-12-24T19:34:22.411Z,78.40
2022-12-24T19:36:51.355Z,78.40
2022-12-24T19:39:26.721Z,78.40
2022-12-24T19:41:59.840Z,78.40
2022-12-24T19:44:29.716Z,78.50
2022-12-24T19:46:58.746Z,78.60
2022-12-24T19:49:28.299Z,78.60
2022-12-24T19:51:57.400Z,78.70
2022-12-24T19:54:27.549Z,78.70
2022-12-24T19:56:56.631Z,78.60
2022-12-24T19:59:25.606Z,78.70
2022-12-24T20:01:56.152Z,78.70
2022-12-24T20:04:25.423Z,78.80
2022-12-24T20:06:59.896Z,78.70
2022-12-24T20:09:32.657Z,78.70
2022-12-24T20:12:02.225Z,78.70
2022-12-24T20:14:31.161Z,78.80
2022-12-24T20:17:00.524Z,78.70
2022-12-24T20:19:29.685Z,78.90
2022-12-24T20:21:58.993Z,78.90
2022-12-24T20:24:30.053Z,78.90
2022-12-24T20:26:59.375Z,79.00
2022-12-24T20:29:29.359Z,78.90
2022-12-24T20:31:58.577Z,78.90
2022-12-24T20:34:27.745Z,78.90
2022-12-24T20:36:56.720Z,78.90
2022-12-24T20:39:25.740Z,78.80
2022-12-24T20:41:56.451Z,78.80
2022-12-24T20:44:26.182Z,78.80
2022-12-24T20:46:56.047Z,78.80
2022-12-24T20:49:24.934Z,78.80
2022-12-24T20:51:54.815Z,78.80
2022-12-24T20:54:23.783Z,78.90
2022-12-24T20:56:57.845Z,78.90
2022-12-24T20:59:29.405Z,78.90
2022-12-24T21:01:58.579Z,79.00
2022-12-24T21:04:28.111Z,79.00
2022-12-24T21:06:57.743Z,79.10
2022-12-24T21:09:26.778Z,79.10
2022-12-24T21:12:13.612Z,79.10
2022-12-24T21:14:44.476Z,79.10
2022-12-24T21:17:16.143Z,79.10
2022-12-24T21:19:46.025Z,79.10
2022-12-24T21:22:14.997Z,79.00
2022-12-24T21:24:44.857Z,79.10
2022-12-24T21:27:14.486Z,79.10
2022-12-24T21:29:45.308Z,79.10
2022-12-24T21:32:14.907Z,79.00
2022-12-24T21:34:44.194Z,79.10
2022-12-24T21:37:13.375Z,79.10
2022-12-24T21:39:42.499Z,79.00
2022-12-24T21:42:11.919Z,79.10
2022-12-24T21:44:41.255Z,79.10
2022-12-24T21:47:11.949Z,79.20
2022-12-24T21:49:58.255Z,79.10
2022-12-24T21:52:29.492Z,79.30
2022-12-24T21:54:57.487Z,79.20
2022-12-24T21:57:44.176Z,79.10
2022-12-24T22:00:26.381Z,79.20
2022-12-24T22:02:59.509Z,79.20
2022-12-24T22:05:29.672Z,79.20
2022-12-24T22:08:16.346Z,79.10
2022-12-24T22:11:03.142Z,79.10
2022-12-24T22:13:32.665Z,79.10
2022-12-24T22:16:02.248Z,79.10
2022-12-24T22:18:32.501Z,79.10
2022-12-24T22:21:02.929Z,79.10
2022-12-24T22:23:34.802Z,79.10
2022-12-24T22:26:12.440Z,79.20
2022-12-24T22:28:41.513Z,79.20
2022-12-24T22:31:18.187Z,80.00
2022-12-24T22:33:48.624Z,79.20
2022-12-24T22:36:17.868Z,79.10
2022-12-24T22:38:47.164Z,79.20
2022-12-24T22:41:16.866Z,79.10
2022-12-24T22:43:46.157Z,79.20
2022-12-24T22:46:15.448Z,79.20
2022-12-24T22:48:46.141Z,79.10
2022-12-24T22:51:19.455Z,79.20
2022-12-24T22:53:48.832Z,79.20
2022-12-24T22:56:21.209Z,79.30
2022-12-24T22:58:55.311Z,79.20
2022-12-24T23:01:33.740Z,79.30
2022-12-24T23:04:03.525Z,79.20
2022-12-24T23:06:34.499Z,79.20
2022-12-24T23:09:05.659Z,79.20
2022-12-24T23:11:34.935Z,79.20
2022-12-24T23:14:21.490Z,79.30
2022-12-24T23:16:51.117Z,79.20
2022-12-24T23:19:20.222Z,79.20
2022-12-24T23:21:51.510Z,79.10
2022-12-24T23:24:20.581Z,79.10
2022-12-24T23:26:49.746Z,79.20
2022-12-24T23:29:19.311Z,79.20
2022-12-24T23:31:48.406Z,79.20
2022-12-24T23:34:17.766Z,79.20
2022-12-24T23:36:47.046Z,79.20
2022-12-24T23:39:17.449Z,79.20
2022-12-24T23:41:46.453Z,79.20
2022-12-24T23:44:15.810Z,79.30
2022-12-24T23:46:45.177Z,79.40
2022-12-24T23:49:15.679Z,79.30
2022-12-24T23:51:44.784Z,79.30
2022-12-24T23:54:14.409Z,79.40
2022-12-24T23:56:45.563Z,79.50
2022-12-24T23:59:15.045Z,79.50
